Terminal Aerodrome Forecast
Issued by NWS

Home | Current Version | Previous Version | Text Only | Print | Product List | Glossary Off
Versions: 1 2 3 4 5 6 7 8 9 10 11 12 13 14 15 16 17 18 19 20 21 22 23 24 25

021
FTUS43 KIWX 080527
TAFSBN
TAF
KSBN 080527Z 0806/0906 24008KT P6SM BKN050
     FM081200 24008KT P6SM OVC018
     FM081500 26010KT 4SM -SHSN OVC015
      TEMPO 0815/0818 2SM -SHSN
     FM081800 30013G18KT 5SM -SHSN OVC020
     FM090000 28010KT P6SM VCSH OVC020=

USA.gov is the U.S. government's official web portal to all federal, state and local government web resources and services.